WZZ2PF EPWA-LEMH
Flight info
| Callsign | WZZ2PF |
|---|---|
| Flight time | 2h 26m |
| Altitude | 36000 |
| Route | EVINA DCT NAVUR DCT BAVOK DCT NAVTI DCT DETSA/N0447F350 DCT RENTA DCT UNTAD DCT PIDAD DCT TALEP DCT VAREK DCT GARPU DCT BALEN UT250 RIXOT |
| Aircraft | A21N/M-SDE3FGHIRWY/LB1 |
Departure
| Time | 2026-04-30 06:53 |
|---|---|
| Airport | Warsaw Chopin Airport (EPWA) |
Arrival
| Time | 2026-04-30 09:19 |
|---|---|
| Airport | Menorca Airport (LEMH) |
| Time | Latitude | Longitude | Altitude | Speed | Heading |
|---|---|---|---|---|---|
| 2026-04-30 06:27 | 52.16770 | 20.97327 | 338 ft | 0 kts | 62° |
| 2026-04-30 06:44 | 52.16766 | 20.97313 | 338 ft | 2 kts | 69° |
| 2026-04-30 06:44 | 52.16762 | 20.97290 | 338 ft | 2 kts | 81° |
| 2026-04-30 06:44 | 52.16761 | 20.97265 | 337 ft | 2 kts | 93° |
| 2026-04-30 06:45 | 52.16763 | 20.97242 | 337 ft | 2 kts | 104° |
| 2026-04-30 06:45 | 52.16768 | 20.97218 | 337 ft | 2 kts | 115° |
| 2026-04-30 06:45 | 52.16775 | 20.97197 | 337 ft | 2 kts | 126° |
| 2026-04-30 06:45 | 52.16785 | 20.97179 | 337 ft | 2 kts | 137° |
| 2026-04-30 06:46 | 52.16797 | 20.97164 | 337 ft | 1 kts | 148° |
| 2026-04-30 06:46 | 52.16801 | 20.97160 | 337 ft | 0 kts | 152° |
| 2026-04-30 06:48 | 52.16788 | 20.97171 | 337 ft | 5 kts | 152° |
| 2026-04-30 06:48 | 52.16735 | 20.97219 | 337 ft | 12 kts | 149° |
| 2026-04-30 06:49 | 52.16653 | 20.97293 | 337 ft | 13 kts | 150° |
| 2026-04-30 06:49 | 52.16577 | 20.97389 | 337 ft | 14 kts | 129° |
| 2026-04-30 06:49 | 52.16528 | 20.97530 | 337 ft | 14 kts | 115° |
| 2026-04-30 06:49 | 52.16484 | 20.97688 | 337 ft | 15 kts | 114° |
| 2026-04-30 06:50 | 52.16412 | 20.97796 | 336 ft | 15 kts | 184° |
| 2026-04-30 06:50 | 52.16312 | 20.97738 | 336 ft | 14 kts | 173° |
| 2026-04-30 06:50 | 52.16249 | 20.97867 | 336 ft | 15 kts | 114° |
| 2026-04-30 06:50 | 52.16204 | 20.98030 | 335 ft | 16 kts | 114° |
| 2026-04-30 06:51 | 52.16158 | 20.98197 | 335 ft | 16 kts | 115° |
| 2026-04-30 06:51 | 52.16132 | 20.98352 | 335 ft | 8 kts | 108° |
| 2026-04-30 06:51 | 52.16115 | 20.98332 | 335 ft | 6 kts | 317° |
| 2026-04-30 06:51 | 52.16127 | 20.98304 | 335 ft | 0 kts | 295° |
| 2026-04-30 06:52 | 52.16152 | 20.98216 | 335 ft | 36 kts | 295° |
| 2026-04-30 06:52 | 52.16361 | 20.97469 | 337 ft | 105 kts | 294° |
| 2026-04-30 06:52 | 52.16751 | 20.96086 | 342 ft | 161 kts | 295° |
| 2026-04-30 06:52 | 52.17225 | 20.94371 | 814 ft | 170 kts | 296° |
| 2026-04-30 06:53 | 52.17709 | 20.92601 | 1460 ft | 174 kts | 296° |
| 2026-04-30 06:53 | 52.18174 | 20.90817 | 2202 ft | 173 kts | 289° |
| 2026-04-30 06:53 | 52.18181 | 20.88916 | 2809 ft | 173 kts | 262° |
| 2026-04-30 06:53 | 52.17912 | 20.87006 | 3329 ft | 174 kts | 260° |
| 2026-04-30 06:54 | 52.17470 | 20.85139 | 3717 ft | 187 kts | 233° |
| 2026-04-30 06:54 | 52.16334 | 20.83970 | 4019 ft | 205 kts | 202° |
| 2026-04-30 06:54 | 52.14917 | 20.83250 | 4344 ft | 221 kts | 197° |
| 2026-04-30 06:54 | 52.13375 | 20.82499 | 4611 ft | 242 kts | 199° |
| 2026-04-30 06:55 | 52.11711 | 20.81608 | 4995 ft | 260 kts | 200° |
| 2026-04-30 06:55 | 52.09971 | 20.80598 | 5425 ft | 275 kts | 201° |
| 2026-04-30 06:55 | 52.08146 | 20.79491 | 6119 ft | 281 kts | 201° |
| 2026-04-30 06:55 | 52.06328 | 20.78364 | 6877 ft | 284 kts | 202° |
| 2026-04-30 06:56 | 52.04473 | 20.77199 | 7586 ft | 289 kts | 202° |
| 2026-04-30 06:56 | 52.02586 | 20.76007 | 8278 ft | 295 kts | 202° |
| 2026-04-30 06:56 | 52.00667 | 20.74791 | 8978 ft | 300 kts | 202° |
| 2026-04-30 06:56 | 51.98705 | 20.73545 | 9639 ft | 305 kts | 202° |
| 2026-04-30 06:57 | 51.96712 | 20.72280 | 10286 ft | 311 kts | 201° |
| 2026-04-30 06:57 | 51.94701 | 20.71004 | 10876 ft | 318 kts | 201° |
| 2026-04-30 06:57 | 51.92594 | 20.69670 | 11206 ft | 334 kts | 201° |
| 2026-04-30 06:57 | 51.90395 | 20.68281 | 11524 ft | 349 kts | 201° |
| 2026-04-30 06:58 | 51.88084 | 20.66822 | 12051 ft | 357 kts | 201° |
| 2026-04-30 06:58 | 51.85767 | 20.65359 | 12686 ft | 360 kts | 201° |
| 2026-04-30 06:58 | 51.83406 | 20.63869 | 13305 ft | 364 kts | 201° |
| 2026-04-30 06:58 | 51.81041 | 20.62380 | 13901 ft | 367 kts | 201° |
| 2026-04-30 06:59 | 51.78647 | 20.60871 | 14474 ft | 371 kts | 201° |
| 2026-04-30 06:59 | 51.76237 | 20.59356 | 15016 ft | 376 kts | 201° |
| 2026-04-30 06:59 | 51.73783 | 20.57816 | 15514 ft | 381 kts | 201° |
| 2026-04-30 06:59 | 51.71292 | 20.56253 | 16028 ft | 386 kts | 201° |
| 2026-04-30 07:00 | 51.68809 | 20.54698 | 16507 ft | 390 kts | 200° |
| 2026-04-30 07:00 | 51.66280 | 20.53114 | 17114 ft | 391 kts | 200° |
| 2026-04-30 07:00 | 51.63744 | 20.51527 | 17678 ft | 393 kts | 200° |
| 2026-04-30 07:00 | 51.61185 | 20.49928 | 18140 ft | 398 kts | 200° |
| 2026-04-30 07:01 | 51.58586 | 20.48309 | 18591 ft | 402 kts | 200° |
| 2026-04-30 07:01 | 51.55992 | 20.46695 | 19048 ft | 406 kts | 200° |
| 2026-04-30 07:01 | 51.53353 | 20.45055 | 19515 ft | 410 kts | 200° |
| 2026-04-30 07:01 | 51.50675 | 20.43389 | 20003 ft | 412 kts | 200° |
| 2026-04-30 07:02 | 51.47983 | 20.41716 | 20474 ft | 415 kts | 200° |
| 2026-04-30 07:02 | 51.45272 | 20.40037 | 20949 ft | 418 kts | 200° |
| 2026-04-30 07:02 | 51.42533 | 20.38345 | 21415 ft | 420 kts | 200° |
| 2026-04-30 07:02 | 51.39837 | 20.36519 | 21835 ft | 424 kts | 206° |
| 2026-04-30 07:03 | 51.37225 | 20.34170 | 22276 ft | 427 kts | 212° |
| 2026-04-30 07:03 | 51.34807 | 20.31424 | 22698 ft | 429 kts | 217° |
| 2026-04-30 07:03 | 51.32426 | 20.28521 | 23103 ft | 431 kts | 218° |
| 2026-04-30 07:03 | 51.30039 | 20.25577 | 23490 ft | 434 kts | 218° |
| 2026-04-30 07:04 | 51.27629 | 20.22627 | 23876 ft | 437 kts | 218° |
| 2026-04-30 07:04 | 51.25217 | 20.19698 | 24277 ft | 439 kts | 217° |
| 2026-04-30 07:04 | 51.22780 | 20.16757 | 24658 ft | 442 kts | 217° |
| 2026-04-30 07:04 | 51.20330 | 20.13817 | 25037 ft | 444 kts | 217° |
| 2026-04-30 07:05 | 51.15344 | 20.07849 | 25712 ft | 450 kts | 217° |
| 2026-04-30 07:05 | 51.12855 | 20.04877 | 26059 ft | 453 kts | 217° |
| 2026-04-30 07:05 | 51.10319 | 20.01854 | 26413 ft | 455 kts | 217° |
| 2026-04-30 07:06 | 51.07786 | 19.98840 | 26764 ft | 457 kts | 217° |
| 2026-04-30 07:06 | 51.05242 | 19.95813 | 27086 ft | 459 kts | 217° |
| 2026-04-30 07:06 | 51.02714 | 19.92698 | 27412 ft | 461 kts | 220° |
| 2026-04-30 07:06 | 51.00300 | 19.89285 | 27713 ft | 463 kts | 226° |
| 2026-04-30 07:07 | 50.98078 | 19.85627 | 27997 ft | 465 kts | 230° |
| 2026-04-30 07:07 | 50.95916 | 19.81838 | 28287 ft | 468 kts | 230° |
| 2026-04-30 07:07 | 50.93731 | 19.77976 | 28578 ft | 470 kts | 230° |
| 2026-04-30 07:07 | 50.91539 | 19.74109 | 28874 ft | 473 kts | 230° |
| 2026-04-30 07:08 | 50.89314 | 19.70204 | 29161 ft | 475 kts | 230° |
| 2026-04-30 07:08 | 50.87085 | 19.66308 | 29412 ft | 478 kts | 230° |
| 2026-04-30 07:08 | 50.84858 | 19.62429 | 29648 ft | 481 kts | 230° |
| 2026-04-30 07:08 | 50.82592 | 19.58492 | 29889 ft | 484 kts | 230° |
| 2026-04-30 07:09 | 50.80337 | 19.54582 | 30163 ft | 486 kts | 230° |
| 2026-04-30 07:09 | 50.78065 | 19.50647 | 30402 ft | 488 kts | 230° |
| 2026-04-30 07:09 | 50.75759 | 19.46661 | 30630 ft | 491 kts | 230° |
| 2026-04-30 07:09 | 50.73464 | 19.42702 | 30873 ft | 493 kts | 230° |
| 2026-04-30 07:10 | 50.71144 | 19.38707 | 31114 ft | 495 kts | 230° |
| 2026-04-30 07:10 | 50.68818 | 19.34707 | 31360 ft | 497 kts | 229° |
| 2026-04-30 07:10 | 50.66466 | 19.30671 | 31581 ft | 499 kts | 229° |
| 2026-04-30 07:10 | 50.64142 | 19.26685 | 31821 ft | 499 kts | 229° |
| 2026-04-30 07:11 | 50.61779 | 19.22636 | 32081 ft | 500 kts | 229° |
| 2026-04-30 07:11 | 50.59403 | 19.18581 | 32272 ft | 502 kts | 229° |
| 2026-04-30 07:11 | 50.57048 | 19.14559 | 32420 ft | 505 kts | 229° |
| 2026-04-30 07:11 | 50.54617 | 19.10416 | 32663 ft | 506 kts | 229° |
| 2026-04-30 07:12 | 50.52237 | 19.06368 | 33000 ft | 503 kts | 229° |
| 2026-04-30 07:12 | 50.49870 | 19.02352 | 33268 ft | 501 kts | 229° |
| 2026-04-30 07:12 | 50.47516 | 18.98363 | 33498 ft | 500 kts | 229° |
| 2026-04-30 07:12 | 50.45137 | 18.94338 | 33738 ft | 499 kts | 229° |
| 2026-04-30 07:13 | 50.42799 | 18.90381 | 33946 ft | 499 kts | 229° |
| 2026-04-30 07:13 | 50.40423 | 18.86373 | 34164 ft | 499 kts | 229° |
| 2026-04-30 07:13 | 50.38082 | 18.82429 | 34377 ft | 498 kts | 229° |
| 2026-04-30 07:13 | 50.35694 | 18.78412 | 34571 ft | 499 kts | 229° |
| 2026-04-30 07:14 | 50.33337 | 18.74457 | 34811 ft | 498 kts | 229° |
| 2026-04-30 07:14 | 50.31009 | 18.70553 | 35059 ft | 497 kts | 229° |
| 2026-04-30 07:14 | 50.28648 | 18.66597 | 35293 ft | 496 kts | 229° |
| 2026-04-30 07:14 | 50.26278 | 18.62635 | 35472 ft | 497 kts | 229° |
| 2026-04-30 07:15 | 50.23920 | 18.58699 | 35649 ft | 497 kts | 229° |
| 2026-04-30 07:15 | 50.21557 | 18.54759 | 35849 ft | 497 kts | 229° |
| 2026-04-30 07:15 | 50.19193 | 18.50827 | 36068 ft | 496 kts | 229° |
| 2026-04-30 07:15 | 50.16864 | 18.46957 | 36255 ft | 495 kts | 229° |
| 2026-04-30 07:16 | 50.14490 | 18.43017 | 36430 ft | 496 kts | 229° |
| 2026-04-30 07:16 | 50.12152 | 18.39144 | 36438 ft | 496 kts | 229° |
| 2026-04-30 07:16 | 50.07404 | 18.31296 | 36449 ft | 496 kts | 229° |
| 2026-04-30 07:17 | 50.02664 | 18.23485 | 36462 ft | 496 kts | 228° |
| 2026-04-30 07:18 | 49.95575 | 18.11722 | 36462 ft | 497 kts | 229° |
| 2026-04-30 07:18 | 49.90883 | 18.03871 | 36441 ft | 496 kts | 229° |
| 2026-04-30 07:19 | 49.86200 | 17.96060 | 36443 ft | 495 kts | 229° |
| 2026-04-30 07:19 | 49.81473 | 17.88207 | 36439 ft | 496 kts | 229° |
| 2026-04-30 07:20 | 49.76752 | 17.80388 | 36424 ft | 497 kts | 229° |
| 2026-04-30 07:20 | 49.72035 | 17.72606 | 36409 ft | 496 kts | 229° |
| 2026-04-30 07:21 | 49.67325 | 17.64856 | 36406 ft | 494 kts | 229° |
| 2026-04-30 07:21 | 49.62591 | 17.57088 | 36409 ft | 496 kts | 229° |
| 2026-04-30 07:22 | 49.55513 | 17.45524 | 36418 ft | 494 kts | 229° |
| 2026-04-30 07:22 | 49.50774 | 17.37809 | 36417 ft | 494 kts | 229° |
| 2026-04-30 07:23 | 49.46016 | 17.30086 | 36434 ft | 494 kts | 228° |
| 2026-04-30 07:23 | 49.41293 | 17.22440 | 36428 ft | 493 kts | 228° |
| 2026-04-30 07:24 | 49.36575 | 17.14827 | 36430 ft | 493 kts | 228° |
| 2026-04-30 07:24 | 49.31834 | 17.07201 | 36435 ft | 493 kts | 228° |
| 2026-04-30 07:25 | 49.27085 | 16.99587 | 36427 ft | 492 kts | 229° |
| 2026-04-30 07:25 | 49.22381 | 16.92064 | 36433 ft | 492 kts | 228° |
| 2026-04-30 07:26 | 49.17626 | 16.84483 | 36447 ft | 492 kts | 229° |
| 2026-04-30 07:26 | 49.12879 | 16.76935 | 36449 ft | 490 kts | 229° |
| 2026-04-30 07:27 | 49.08175 | 16.69476 | 36439 ft | 491 kts | 228° |
| 2026-04-30 07:27 | 49.03427 | 16.61972 | 36457 ft | 490 kts | 228° |
| 2026-04-30 07:28 | 48.98691 | 16.54513 | 36452 ft | 490 kts | 228° |
| 2026-04-30 07:28 | 48.93967 | 16.47088 | 36451 ft | 490 kts | 228° |
| 2026-04-30 07:29 | 48.89235 | 16.39670 | 36448 ft | 489 kts | 228° |
| 2026-04-30 07:29 | 48.84441 | 16.32179 | 36442 ft | 490 kts | 228° |
| 2026-04-30 07:30 | 48.77359 | 16.20886 | 36458 ft | 488 kts | 232° |
| 2026-04-30 07:31 | 48.73251 | 16.12715 | 36432 ft | 486 kts | 237° |
| 2026-04-30 07:31 | 48.69334 | 16.04308 | 36454 ft | 486 kts | 238° |
| 2026-04-30 07:32 | 48.65443 | 15.95984 | 36449 ft | 487 kts | 238° |
| 2026-04-30 07:32 | 48.61478 | 15.87552 | 36428 ft | 487 kts | 238° |
| 2026-04-30 07:33 | 48.57534 | 15.79201 | 36427 ft | 487 kts | 238° |
| 2026-04-30 07:33 | 48.53581 | 15.70861 | 36432 ft | 487 kts | 238° |
| 2026-04-30 07:34 | 48.49611 | 15.62508 | 36405 ft | 486 kts | 238° |
| 2026-04-30 07:34 | 48.45651 | 15.54204 | 36414 ft | 487 kts | 238° |
| 2026-04-30 07:35 | 48.41689 | 15.45921 | 36399 ft | 487 kts | 238° |
| 2026-04-30 07:35 | 48.37734 | 15.37670 | 36392 ft | 487 kts | 238° |
| 2026-04-30 07:36 | 48.33717 | 15.29325 | 36382 ft | 488 kts | 237° |
| 2026-04-30 07:36 | 48.29717 | 15.21040 | 36423 ft | 488 kts | 237° |
| 2026-04-30 07:37 | 48.25707 | 15.12756 | 36397 ft | 488 kts | 237° |
| 2026-04-30 07:37 | 48.21692 | 15.04494 | 36394 ft | 488 kts | 237° |
| 2026-04-30 07:38 | 48.17683 | 14.96263 | 36394 ft | 488 kts | 237° |
| 2026-04-30 07:38 | 48.13663 | 14.88038 | 36396 ft | 487 kts | 237° |
| 2026-04-30 07:39 | 48.09653 | 14.79852 | 36388 ft | 488 kts | 237° |
| 2026-04-30 07:39 | 48.05625 | 14.71656 | 36390 ft | 488 kts | 237° |
| 2026-04-30 07:40 | 48.01586 | 14.63464 | 36380 ft | 486 kts | 237° |
| 2026-04-30 07:40 | 47.97572 | 14.55351 | 36378 ft | 486 kts | 237° |
| 2026-04-30 07:41 | 47.93531 | 14.47203 | 36379 ft | 486 kts | 237° |
| 2026-04-30 07:41 | 47.89507 | 14.39114 | 36363 ft | 486 kts | 237° |
| 2026-04-30 07:42 | 47.85408 | 14.30900 | 36370 ft | 487 kts | 236° |
| 2026-04-30 07:42 | 47.81347 | 14.22785 | 36359 ft | 486 kts | 236° |
| 2026-04-30 07:43 | 47.77279 | 14.14687 | 36364 ft | 486 kts | 236° |
| 2026-04-30 07:43 | 47.73241 | 14.06663 | 36337 ft | 487 kts | 236° |
| 2026-04-30 07:44 | 47.69171 | 13.98602 | 36309 ft | 487 kts | 236° |
| 2026-04-30 07:44 | 47.65088 | 13.90540 | 36288 ft | 485 kts | 236° |
| 2026-04-30 07:45 | 47.61046 | 13.82576 | 36290 ft | 485 kts | 236° |
| 2026-04-30 07:45 | 47.56965 | 13.74551 | 36279 ft | 484 kts | 236° |
| 2026-04-30 07:46 | 47.52898 | 13.66591 | 36254 ft | 484 kts | 236° |
| 2026-04-30 07:46 | 47.48826 | 13.58652 | 36241 ft | 484 kts | 236° |
| 2026-04-30 07:47 | 47.44741 | 13.50707 | 36255 ft | 483 kts | 236° |
| 2026-04-30 07:47 | 47.40667 | 13.42806 | 36259 ft | 482 kts | 236° |
| 2026-04-30 07:48 | 47.36639 | 13.35010 | 36244 ft | 482 kts | 236° |
| 2026-04-30 07:48 | 47.32483 | 13.26992 | 36229 ft | 482 kts | 235° |
| 2026-04-30 07:49 | 47.28398 | 13.19134 | 36220 ft | 481 kts | 235° |
| 2026-04-30 07:49 | 47.24324 | 13.11320 | 36235 ft | 480 kts | 235° |
| 2026-04-30 07:50 | 47.20235 | 13.03501 | 36256 ft | 481 kts | 235° |
| 2026-04-30 07:50 | 47.16163 | 12.95731 | 36249 ft | 481 kts | 235° |
| 2026-04-30 07:51 | 47.12065 | 12.87935 | 36231 ft | 480 kts | 235° |
| 2026-04-30 07:51 | 47.07972 | 12.80169 | 36211 ft | 479 kts | 235° |
| 2026-04-30 07:52 | 47.03911 | 12.72495 | 36215 ft | 479 kts | 235° |
| 2026-04-30 07:52 | 46.99821 | 12.64777 | 35974 ft | 478 kts | 235° |
| 2026-04-30 07:52 | 46.97783 | 12.60939 | 36120 ft | 478 kts | 235° |
| 2026-04-30 07:53 | 46.95731 | 12.57080 | 36195 ft | 478 kts | 235° |
| 2026-04-30 07:53 | 46.91666 | 12.49455 | 36498 ft | 473 kts | 235° |
| 2026-04-30 07:53 | 46.89697 | 12.45771 | 36761 ft | 471 kts | 235° |
| 2026-04-30 07:54 | 46.87664 | 12.41972 | 37031 ft | 469 kts | 235° |
| 2026-04-30 07:54 | 46.85646 | 12.38205 | 37256 ft | 468 kts | 235° |
| 2026-04-30 07:54 | 46.83636 | 12.34455 | 37265 ft | 467 kts | 235° |
| 2026-04-30 07:55 | 46.79900 | 12.26612 | 37268 ft | 464 kts | 242° |
| 2026-04-30 07:55 | 46.76859 | 12.18387 | 37269 ft | 462 kts | 247° |
| 2026-04-30 07:56 | 46.73988 | 12.09963 | 37275 ft | 461 kts | 247° |
| 2026-04-30 07:56 | 46.71125 | 12.01608 | 37283 ft | 461 kts | 247° |
| 2026-04-30 07:57 | 46.68244 | 11.93253 | 37290 ft | 461 kts | 247° |
| 2026-04-30 07:57 | 46.65374 | 11.84960 | 37272 ft | 461 kts | 247° |
| 2026-04-30 07:58 | 46.62468 | 11.76590 | 37278 ft | 461 kts | 247° |
| 2026-04-30 07:58 | 46.59581 | 11.68306 | 37272 ft | 460 kts | 247° |
| 2026-04-30 07:59 | 46.56701 | 11.60069 | 37271 ft | 459 kts | 247° |
| 2026-04-30 07:59 | 46.53805 | 11.51806 | 37274 ft | 459 kts | 247° |
| 2026-04-30 08:00 | 46.49456 | 11.39448 | 37267 ft | 459 kts | 247° |
| 2026-04-30 08:00 | 46.46511 | 11.31114 | 37258 ft | 458 kts | 246° |
| 2026-04-30 08:01 | 46.43599 | 11.22903 | 37270 ft | 458 kts | 246° |
| 2026-04-30 08:01 | 46.40675 | 11.14682 | 37262 ft | 458 kts | 246° |
| 2026-04-30 08:02 | 46.36293 | 11.02406 | 37261 ft | 457 kts | 246° |
| 2026-04-30 08:03 | 46.33009 | 10.94575 | 37249 ft | 462 kts | 234° |
| 2026-04-30 08:03 | 46.28200 | 10.88308 | 37245 ft | 470 kts | 215° |
| 2026-04-30 08:04 | 46.22454 | 10.83780 | 37233 ft | 472 kts | 209° |
| 2026-04-30 08:04 | 46.16647 | 10.79448 | 37216 ft | 471 kts | 210° |
| 2026-04-30 08:05 | 46.10975 | 10.74723 | 37210 ft | 470 kts | 213° |
| 2026-04-30 08:05 | 46.05388 | 10.69901 | 37208 ft | 469 kts | 214° |
| 2026-04-30 08:06 | 45.99787 | 10.65079 | 37211 ft | 469 kts | 214° |
| 2026-04-30 08:06 | 45.94181 | 10.60269 | 37216 ft | 468 kts | 214° |
| 2026-04-30 08:07 | 45.88582 | 10.55478 | 37220 ft | 468 kts | 214° |
| 2026-04-30 08:07 | 45.82963 | 10.50681 | 37230 ft | 468 kts | 214° |
| 2026-04-30 08:08 | 45.77373 | 10.45921 | 37240 ft | 468 kts | 214° |
| 2026-04-30 08:08 | 45.71777 | 10.41167 | 37254 ft | 467 kts | 214° |
| 2026-04-30 08:09 | 45.66173 | 10.36418 | 37257 ft | 466 kts | 214° |
| 2026-04-30 08:09 | 45.60544 | 10.31657 | 37261 ft | 466 kts | 214° |
| 2026-04-30 08:10 | 45.54955 | 10.26941 | 37259 ft | 465 kts | 214° |
| 2026-04-30 08:10 | 45.49360 | 10.22233 | 37263 ft | 465 kts | 214° |
| 2026-04-30 08:11 | 45.43797 | 10.17561 | 37262 ft | 464 kts | 214° |
| 2026-04-30 08:11 | 45.38233 | 10.12901 | 37262 ft | 462 kts | 214° |
| 2026-04-30 08:12 | 45.32688 | 10.08264 | 37263 ft | 463 kts | 214° |
| 2026-04-30 08:12 | 45.27178 | 10.03672 | 37254 ft | 461 kts | 214° |
| 2026-04-30 08:13 | 45.21624 | 9.99049 | 37260 ft | 461 kts | 214° |
| 2026-04-30 08:13 | 45.16089 | 9.94458 | 37257 ft | 459 kts | 214° |
| 2026-04-30 08:14 | 45.10603 | 9.89912 | 37251 ft | 458 kts | 214° |
| 2026-04-30 08:14 | 45.05121 | 9.85382 | 37254 ft | 456 kts | 215° |
| 2026-04-30 08:15 | 44.99635 | 9.80859 | 37246 ft | 457 kts | 215° |
| 2026-04-30 08:15 | 44.94135 | 9.76334 | 37248 ft | 456 kts | 215° |
| 2026-04-30 08:16 | 44.88653 | 9.71833 | 37242 ft | 455 kts | 215° |
| 2026-04-30 08:16 | 44.83134 | 9.67314 | 37240 ft | 455 kts | 215° |
| 2026-04-30 08:17 | 44.77665 | 9.62846 | 37216 ft | 453 kts | 215° |
| 2026-04-30 08:17 | 44.72198 | 9.58387 | 37208 ft | 453 kts | 215° |
| 2026-04-30 08:18 | 44.66728 | 9.53937 | 37195 ft | 453 kts | 215° |
| 2026-04-30 08:18 | 44.61266 | 9.49505 | 37193 ft | 451 kts | 216° |
| 2026-04-30 08:19 | 44.55832 | 9.45100 | 37180 ft | 451 kts | 215° |
| 2026-04-30 08:19 | 44.50391 | 9.40704 | 37177 ft | 450 kts | 216° |
| 2026-04-30 08:20 | 44.44991 | 9.36346 | 37191 ft | 450 kts | 216° |
| 2026-04-30 08:20 | 44.39512 | 9.31938 | 37178 ft | 450 kts | 215° |
| 2026-04-30 08:21 | 44.34115 | 9.27604 | 37188 ft | 450 kts | 215° |
| 2026-04-30 08:21 | 44.28665 | 9.23236 | 37191 ft | 448 kts | 215° |
| 2026-04-30 08:22 | 44.23281 | 9.18932 | 37183 ft | 447 kts | 215° |
| 2026-04-30 08:22 | 44.17874 | 9.14617 | 37173 ft | 446 kts | 215° |
| 2026-04-30 08:23 | 44.12506 | 9.10340 | 37165 ft | 446 kts | 215° |
| 2026-04-30 08:23 | 44.07103 | 9.06046 | 37172 ft | 446 kts | 215° |
| 2026-04-30 08:24 | 44.01741 | 9.01795 | 37168 ft | 445 kts | 215° |
| 2026-04-30 08:24 | 43.96338 | 8.97520 | 37169 ft | 445 kts | 215° |
| 2026-04-30 08:25 | 43.90999 | 8.93303 | 37171 ft | 444 kts | 215° |
| 2026-04-30 08:25 | 43.85609 | 8.89057 | 37158 ft | 443 kts | 215° |
| 2026-04-30 08:26 | 43.80196 | 8.84799 | 37161 ft | 443 kts | 215° |
| 2026-04-30 08:26 | 43.74864 | 8.80613 | 37157 ft | 443 kts | 215° |
| 2026-04-30 08:27 | 43.69483 | 8.76487 | 37148 ft | 445 kts | 212° |
| 2026-04-30 08:27 | 43.63677 | 8.73321 | 37146 ft | 452 kts | 201° |
| 2026-04-30 08:28 | 43.57510 | 8.71563 | 37142 ft | 458 kts | 191° |
| 2026-04-30 08:28 | 43.51118 | 8.70799 | 37138 ft | 459 kts | 191° |
| 2026-04-30 08:29 | 43.44909 | 8.69272 | 37126 ft | 453 kts | 200° |
| 2026-04-30 08:29 | 43.38973 | 8.66512 | 37125 ft | 446 kts | 208° |
| 2026-04-30 08:30 | 43.33390 | 8.62952 | 37124 ft | 444 kts | 211° |
| 2026-04-30 08:30 | 43.27817 | 8.59335 | 37125 ft | 444 kts | 211° |
| 2026-04-30 08:31 | 43.22233 | 8.55728 | 37121 ft | 444 kts | 211° |
| 2026-04-30 08:31 | 43.16671 | 8.52146 | 37117 ft | 444 kts | 211° |
| 2026-04-30 08:32 | 43.11084 | 8.48556 | 37113 ft | 444 kts | 211° |
| 2026-04-30 08:32 | 43.05498 | 8.44973 | 37108 ft | 444 kts | 211° |
| 2026-04-30 08:33 | 42.99883 | 8.41381 | 37110 ft | 443 kts | 211° |
| 2026-04-30 08:33 | 42.94346 | 8.37844 | 37110 ft | 443 kts | 211° |
| 2026-04-30 08:34 | 42.88757 | 8.34284 | 37101 ft | 443 kts | 210° |
| 2026-04-30 08:34 | 42.83188 | 8.30741 | 37103 ft | 444 kts | 210° |
| 2026-04-30 08:35 | 42.77602 | 8.27196 | 37103 ft | 444 kts | 210° |
| 2026-04-30 08:35 | 42.71995 | 8.23644 | 37097 ft | 444 kts | 210° |
| 2026-04-30 08:36 | 42.66400 | 8.20108 | 37095 ft | 443 kts | 211° |
| 2026-04-30 08:36 | 42.60815 | 8.16585 | 37096 ft | 443 kts | 211° |
| 2026-04-30 08:37 | 42.55250 | 8.13079 | 37093 ft | 443 kts | 211° |
| 2026-04-30 08:37 | 42.49655 | 8.09562 | 37088 ft | 443 kts | 211° |
| 2026-04-30 08:38 | 42.44083 | 8.06066 | 37087 ft | 443 kts | 211° |
| 2026-04-30 08:38 | 42.38504 | 8.02575 | 37087 ft | 442 kts | 211° |
| 2026-04-30 08:39 | 42.33047 | 7.98862 | 37088 ft | 438 kts | 216° |
| 2026-04-30 08:39 | 42.27968 | 7.94421 | 37088 ft | 433 kts | 222° |
| 2026-04-30 08:40 | 42.23254 | 7.89427 | 37081 ft | 431 kts | 224° |
| 2026-04-30 08:40 | 42.18590 | 7.84410 | 37078 ft | 431 kts | 224° |
| 2026-04-30 08:41 | 42.13916 | 7.79393 | 37077 ft | 430 kts | 224° |
| 2026-04-30 08:41 | 42.09234 | 7.74380 | 37074 ft | 429 kts | 224° |
| 2026-04-30 08:42 | 42.04599 | 7.69425 | 37073 ft | 429 kts | 224° |
| 2026-04-30 08:42 | 41.99902 | 7.64415 | 37073 ft | 429 kts | 225° |
| 2026-04-30 08:43 | 41.95264 | 7.59478 | 37070 ft | 428 kts | 224° |
| 2026-04-30 08:43 | 41.90599 | 7.54521 | 37065 ft | 427 kts | 224° |
| 2026-04-30 08:44 | 41.85952 | 7.49592 | 37062 ft | 427 kts | 225° |
| 2026-04-30 08:44 | 41.81292 | 7.44658 | 37064 ft | 427 kts | 225° |
| 2026-04-30 08:45 | 41.76660 | 7.39763 | 37065 ft | 426 kts | 225° |
| 2026-04-30 08:45 | 41.71997 | 7.34843 | 37064 ft | 426 kts | 224° |
| 2026-04-30 08:46 | 41.67319 | 7.29845 | 37063 ft | 425 kts | 226° |
| 2026-04-30 08:46 | 41.62907 | 7.24113 | 37062 ft | 419 kts | 233° |
| 2026-04-30 08:47 | 41.59238 | 7.17978 | 37061 ft | 414 kts | 240° |
| 2026-04-30 08:47 | 41.56220 | 7.11478 | 37062 ft | 410 kts | 245° |
| 2026-04-30 08:48 | 41.53434 | 7.04891 | 37061 ft | 409 kts | 245° |
| 2026-04-30 08:48 | 41.50636 | 6.98283 | 37057 ft | 409 kts | 245° |
| 2026-04-30 08:49 | 41.47853 | 6.91725 | 37054 ft | 409 kts | 245° |
| 2026-04-30 08:49 | 41.45042 | 6.85111 | 37054 ft | 409 kts | 245° |
| 2026-04-30 08:50 | 41.42252 | 6.78565 | 37048 ft | 409 kts | 245° |
| 2026-04-30 08:50 | 41.39444 | 6.71992 | 37054 ft | 408 kts | 245° |
| 2026-04-30 08:51 | 41.36642 | 6.65443 | 37053 ft | 408 kts | 245° |
| 2026-04-30 08:51 | 41.33840 | 6.58911 | 37046 ft | 408 kts | 245° |
| 2026-04-30 08:52 | 41.31018 | 6.52347 | 37044 ft | 408 kts | 245° |
| 2026-04-30 08:52 | 41.28215 | 6.45841 | 37047 ft | 407 kts | 245° |
| 2026-04-30 08:53 | 41.25420 | 6.39366 | 37046 ft | 406 kts | 245° |
| 2026-04-30 08:53 | 41.22579 | 6.32803 | 37052 ft | 406 kts | 244° |
| 2026-04-30 08:53 | 41.21128 | 6.29454 | 36754 ft | 406 kts | 244° |
| 2026-04-30 08:54 | 41.19659 | 6.26070 | 36428 ft | 403 kts | 244° |
| 2026-04-30 08:54 | 41.18189 | 6.22688 | 36144 ft | 400 kts | 244° |
| 2026-04-30 08:54 | 41.16737 | 6.19346 | 35893 ft | 398 kts | 244° |
| 2026-04-30 08:54 | 41.15326 | 6.16102 | 35640 ft | 398 kts | 244° |
| 2026-04-30 08:55 | 41.13872 | 6.12763 | 35382 ft | 399 kts | 244° |
| 2026-04-30 08:55 | 41.12430 | 6.09456 | 35068 ft | 399 kts | 244° |
| 2026-04-30 08:55 | 41.10966 | 6.06103 | 34612 ft | 400 kts | 244° |
| 2026-04-30 08:55 | 41.09484 | 6.02711 | 33972 ft | 401 kts | 244° |
| 2026-04-30 08:56 | 41.08028 | 5.99381 | 33260 ft | 403 kts | 243° |
| 2026-04-30 08:56 | 41.06553 | 5.96013 | 32524 ft | 405 kts | 243° |
| 2026-04-30 08:56 | 41.05061 | 5.92610 | 31813 ft | 406 kts | 243° |
| 2026-04-30 08:56 | 41.03560 | 5.89196 | 31325 ft | 401 kts | 243° |
| 2026-04-30 08:57 | 41.02096 | 5.85868 | 30833 ft | 398 kts | 243° |
| 2026-04-30 08:57 | 41.00642 | 5.82569 | 30337 ft | 395 kts | 243° |
| 2026-04-30 08:57 | 40.99205 | 5.79306 | 29834 ft | 391 kts | 243° |
| 2026-04-30 08:57 | 40.97779 | 5.76073 | 29338 ft | 388 kts | 242° |
| 2026-04-30 08:58 | 40.96439 | 5.73042 | 28878 ft | 385 kts | 242° |
| 2026-04-30 08:58 | 40.95068 | 5.69990 | 28420 ft | 383 kts | 241° |
| 2026-04-30 08:58 | 40.93618 | 5.67084 | 27973 ft | 380 kts | 238° |
| 2026-04-30 08:58 | 40.92090 | 5.64228 | 27517 ft | 378 kts | 238° |
| 2026-04-30 08:59 | 40.90587 | 5.61416 | 27054 ft | 375 kts | 238° |
| 2026-04-30 08:59 | 40.89103 | 5.58641 | 26606 ft | 373 kts | 238° |
| 2026-04-30 08:59 | 40.87614 | 5.55864 | 26173 ft | 370 kts | 238° |
| 2026-04-30 08:59 | 40.86139 | 5.53113 | 25743 ft | 367 kts | 238° |
| 2026-04-30 09:00 | 40.84673 | 5.50381 | 25306 ft | 364 kts | 238° |
| 2026-04-30 09:00 | 40.83207 | 5.47649 | 24872 ft | 361 kts | 238° |
| 2026-04-30 09:00 | 40.81761 | 5.44959 | 24438 ft | 358 kts | 238° |
| 2026-04-30 09:00 | 40.80328 | 5.42295 | 24002 ft | 356 kts | 238° |
| 2026-04-30 09:01 | 40.78879 | 5.39605 | 23564 ft | 354 kts | 238° |
| 2026-04-30 09:01 | 40.77464 | 5.36982 | 23139 ft | 351 kts | 238° |
| 2026-04-30 09:01 | 40.76057 | 5.34375 | 22701 ft | 350 kts | 237° |
| 2026-04-30 09:01 | 40.74659 | 5.31787 | 22257 ft | 349 kts | 237° |
| 2026-04-30 09:02 | 40.71852 | 5.26595 | 21384 ft | 346 kts | 237° |
| 2026-04-30 09:02 | 40.70472 | 5.24044 | 20957 ft | 344 kts | 236° |
| 2026-04-30 09:02 | 40.69085 | 5.21484 | 20529 ft | 343 kts | 236° |
| 2026-04-30 09:03 | 40.67693 | 5.18918 | 20102 ft | 341 kts | 236° |
| 2026-04-30 09:03 | 40.66330 | 5.16407 | 19673 ft | 340 kts | 236° |
| 2026-04-30 09:03 | 40.64960 | 5.13882 | 19240 ft | 339 kts | 236° |
| 2026-04-30 09:03 | 40.63594 | 5.11369 | 18803 ft | 338 kts | 236° |
| 2026-04-30 09:04 | 40.62234 | 5.08871 | 18372 ft | 337 kts | 236° |
| 2026-04-30 09:04 | 40.60867 | 5.06360 | 17940 ft | 336 kts | 236° |
| 2026-04-30 09:04 | 40.59510 | 5.03871 | 17514 ft | 335 kts | 236° |
| 2026-04-30 09:04 | 40.58172 | 5.01418 | 17094 ft | 334 kts | 236° |
| 2026-04-30 09:05 | 40.56805 | 4.98914 | 16662 ft | 332 kts | 236° |
| 2026-04-30 09:05 | 40.55474 | 4.96478 | 16245 ft | 331 kts | 235° |
| 2026-04-30 09:05 | 40.54126 | 4.94012 | 15809 ft | 330 kts | 235° |
| 2026-04-30 09:05 | 40.52791 | 4.91572 | 15386 ft | 329 kts | 235° |
| 2026-04-30 09:06 | 40.51452 | 4.89126 | 14957 ft | 327 kts | 235° |
| 2026-04-30 09:06 | 40.50126 | 4.86706 | 14545 ft | 326 kts | 235° |
| 2026-04-30 09:06 | 40.48819 | 4.84324 | 14116 ft | 324 kts | 235° |
| 2026-04-30 09:06 | 40.47498 | 4.81916 | 13693 ft | 323 kts | 235° |
| 2026-04-30 09:07 | 40.46193 | 4.79542 | 13266 ft | 321 kts | 235° |
| 2026-04-30 09:07 | 40.44885 | 4.77163 | 12842 ft | 320 kts | 234° |
| 2026-04-30 09:07 | 40.43590 | 4.74808 | 12429 ft | 318 kts | 234° |
| 2026-04-30 09:07 | 40.42289 | 4.72444 | 12000 ft | 317 kts | 234° |
| 2026-04-30 09:08 | 40.41009 | 4.70120 | 11574 ft | 315 kts | 234° |
| 2026-04-30 09:08 | 40.39685 | 4.67870 | 11162 ft | 314 kts | 229° |
| 2026-04-30 09:08 | 40.38094 | 4.65889 | 10743 ft | 313 kts | 219° |
| 2026-04-30 09:08 | 40.36333 | 4.64248 | 10360 ft | 309 kts | 214° |
| 2026-04-30 09:09 | 40.34586 | 4.62744 | 10221 ft | 297 kts | 214° |
| 2026-04-30 09:09 | 40.32891 | 4.61300 | 10105 ft | 284 kts | 214° |
| 2026-04-30 09:09 | 40.31266 | 4.59914 | 9897 ft | 277 kts | 214° |
| 2026-04-30 09:09 | 40.29646 | 4.58530 | 9532 ft | 275 kts | 214° |
| 2026-04-30 09:10 | 40.28051 | 4.57162 | 9186 ft | 273 kts | 214° |
| 2026-04-30 09:10 | 40.26466 | 4.55802 | 8829 ft | 272 kts | 213° |
| 2026-04-30 09:10 | 40.24891 | 4.54451 | 8485 ft | 270 kts | 213° |
| 2026-04-30 09:10 | 40.23339 | 4.53121 | 8151 ft | 269 kts | 213° |
| 2026-04-30 09:11 | 40.21776 | 4.51782 | 7794 ft | 268 kts | 213° |
| 2026-04-30 09:11 | 40.20209 | 4.50440 | 7442 ft | 267 kts | 213° |
| 2026-04-30 09:11 | 40.18659 | 4.49113 | 7102 ft | 265 kts | 212° |
| 2026-04-30 09:11 | 40.17063 | 4.47749 | 6748 ft | 264 kts | 212° |
| 2026-04-30 09:12 | 40.15524 | 4.46434 | 6419 ft | 263 kts | 212° |
| 2026-04-30 09:12 | 40.14010 | 4.45140 | 6082 ft | 262 kts | 212° |
| 2026-04-30 09:12 | 40.12495 | 4.43848 | 5756 ft | 261 kts | 212° |
| 2026-04-30 09:12 | 40.10961 | 4.42540 | 5416 ft | 259 kts | 212° |
| 2026-04-30 09:13 | 40.09472 | 4.41270 | 5082 ft | 257 kts | 212° |
| 2026-04-30 09:13 | 40.07986 | 4.40003 | 4950 ft | 246 kts | 212° |
| 2026-04-30 09:13 | 40.06578 | 4.38734 | 4777 ft | 241 kts | 220° |
| 2026-04-30 09:13 | 40.05657 | 4.36926 | 4487 ft | 242 kts | 252° |
| 2026-04-30 09:14 | 40.05544 | 4.34708 | 4191 ft | 241 kts | 279° |
| 2026-04-30 09:14 | 40.06065 | 4.32636 | 3928 ft | 237 kts | 292° |
| 2026-04-30 09:14 | 40.06694 | 4.30646 | 3662 ft | 233 kts | 289° |
| 2026-04-30 09:14 | 40.06860 | 4.28519 | 3439 ft | 223 kts | 255° |
| 2026-04-30 09:15 | 40.06134 | 4.26793 | 3296 ft | 213 kts | 219° |
| 2026-04-30 09:15 | 40.04948 | 4.25868 | 3197 ft | 210 kts | 198° |
| 2026-04-30 09:15 | 40.03445 | 4.25358 | 3077 ft | 209 kts | 188° |
| 2026-04-30 09:15 | 40.01971 | 4.25055 | 2969 ft | 208 kts | 186° |
| 2026-04-30 09:16 | 40.00511 | 4.24784 | 2858 ft | 208 kts | 186° |
| 2026-04-30 09:16 | 39.99006 | 4.24490 | 2628 ft | 207 kts | 186° |
| 2026-04-30 09:16 | 39.97593 | 4.24199 | 2394 ft | 200 kts | 186° |
| 2026-04-30 09:16 | 39.96233 | 4.23915 | 2092 ft | 195 kts | 186° |
| 2026-04-30 09:17 | 39.94888 | 4.23637 | 1803 ft | 184 kts | 186° |
| 2026-04-30 09:17 | 39.93662 | 4.23382 | 1578 ft | 166 kts | 186° |
| 2026-04-30 09:17 | 39.92578 | 4.23159 | 1340 ft | 150 kts | 186° |
| 2026-04-30 09:17 | 39.91581 | 4.22954 | 1136 ft | 140 kts | 185° |
| 2026-04-30 09:18 | 39.90617 | 4.22757 | 970 ft | 138 kts | 186° |
| 2026-04-30 09:18 | 39.89657 | 4.22556 | 778 ft | 138 kts | 186° |
| 2026-04-30 09:18 | 39.88697 | 4.22367 | 600 ft | 138 kts | 186° |
| 2026-04-30 09:18 | 39.87762 | 4.22169 | 449 ft | 135 kts | 187° |
| 2026-04-30 09:19 | 39.86819 | 4.21978 | 306 ft | 133 kts | 187° |
| 2026-04-30 09:19 | 39.86006 | 4.21814 | 294 ft | 96 kts | 189° |
| 2026-04-30 09:19 | 39.85515 | 4.21713 | 282 ft | 50 kts | 188° |
| 2026-04-30 09:19 | 39.85267 | 4.21660 | 277 ft | 24 kts | 188° |
| 2026-04-30 09:20 | 39.85144 | 4.21684 | 276 ft | 15 kts | 116° |
| 2026-04-30 09:20 | 39.85128 | 4.21825 | 274 ft | 16 kts | 83° |
| 2026-04-30 09:20 | 39.85218 | 4.21892 | 273 ft | 16 kts | 8° |
| 2026-04-30 09:20 | 39.85334 | 4.21915 | 273 ft | 16 kts | 8° |
| 2026-04-30 09:21 | 39.85446 | 4.21937 | 275 ft | 15 kts | 8° |
| 2026-04-30 09:21 | 39.85548 | 4.21958 | 280 ft | 14 kts | 8° |
| 2026-04-30 09:21 | 39.85648 | 4.21979 | 284 ft | 16 kts | 9° |
| 2026-04-30 09:21 | 39.85773 | 4.22004 | 288 ft | 19 kts | 8° |
| 2026-04-30 09:22 | 39.85903 | 4.22030 | 289 ft | 18 kts | 9° |
| 2026-04-30 09:22 | 39.86034 | 4.22058 | 287 ft | 19 kts | 8° |
| 2026-04-30 09:22 | 39.86161 | 4.22088 | 285 ft | 16 kts | 29° |
| 2026-04-30 09:22 | 39.86192 | 4.22234 | 277 ft | 18 kts | 86° |
| 2026-04-30 09:23 | 39.86285 | 4.22281 | 268 ft | 18 kts | 6° |
| 2026-04-30 09:23 | 39.86452 | 4.22314 | 267 ft | 28 kts | 9° |
| 2026-04-30 09:23 | 39.86607 | 4.22346 | 275 ft | 14 kts | 8° |
| 2026-04-30 09:23 | 39.86674 | 4.22374 | 280 ft | 5 kts | 61° |
| 2026-04-30 09:24 | 39.86673 | 4.22412 | 281 ft | 4 kts | 107° |
| 2026-04-30 09:24 | 39.86668 | 4.22443 | 281 ft | 2 kts | 99° |
| 2026-04-30 09:24 | 39.86667 | 4.22448 | 281 ft | 0 kts | 99° |